Treetops Village, Michigan
Current Conditions -  °F | °C
As of 11:53 PM on Tuesday 25 Nov 2014 (Local Time) from KGLR Reporting Station
Overcast Overcast  
Wind Chill: 18°   Ceiling: 1800
Heat Index: 24°   Visibility: 10mi
Dew Point: 20°   Wind: 5mph
Humidity: 84%   Direction: 220°SW
Pressure: 30.11"   Gusts: NA
Location:  44.9934°N, 84.6766°W
Report Text: KGLR 260453Z AUTO 22004KT 10SM OVC018 M04/M07 A3011 RMK AO2 SLP216 T10441067 410171044
Loading
Personal Weather Stations






























Interactive Weather Map New forecast layout! Learn more

10-Day Weather Forecast

Advertisements
Track Severe Weather on mobile